sensor_id;sensor_type;location;lat;lon;timestamp;P1;durP1;ratioP1;P2;durP2;ratioP2
23716;SDS011;22094;52.130;5.598;2022-08-02T00:02:17;11.45;;;4.97;;
23716;SDS011;22094;52.130;5.598;2022-08-02T00:04:44;10.05;;;4.82;;
23716;SDS011;22094;52.130;5.598;2022-08-02T00:07:10;7.20;;;4.38;;
23716;SDS011;22094;52.130;5.598;2022-08-02T00:09:36;8.55;;;4.40;;
23716;SDS011;22094;52.130;5.598;2022-08-02T00:12:01;8.95;;;4.53;;
23716;SDS011;22094;52.130;5.598;2022-08-02T00:14:27;7.45;;;4.55;;
23716;SDS011;22094;52.130;5.598;2022-08-02T00:16:53;8.55;;;4.28;;
23716;SDS011;22094;52.130;5.598;2022-08-02T00:19:18;7.78;;;4.60;;
23716;SDS011;22094;52.130;5.598;2022-08-02T00:21:44;7.30;;;4.78;;
23716;SDS011;22094;52.130;5.598;2022-08-02T00:24:10;5.75;;;4.88;;
23716;SDS011;22094;52.130;5.598;2022-08-02T00:26:35;7.68;;;5.50;;
23716;SDS011;22094;52.130;5.598;2022-08-02T00:29:01;8.23;;;5.35;;
23716;SDS011;22094;52.130;5.598;2022-08-02T00:31:26;8.55;;;5.10;;
23716;SDS011;22094;52.130;5.598;2022-08-02T00:33:52;8.73;;;5.13;;
23716;SDS011;22094;52.130;5.598;2022-08-02T00:36:17;6.25;;;5.00;;
23716;SDS011;22094;52.130;5.598;2022-08-02T00:38:43;5.95;;;4.72;;
23716;SDS011;22094;52.130;5.598;2022-08-02T00:41:14;6.95;;;5.30;;
23716;SDS011;22094;52.130;5.598;2022-08-02T00:43:42;9.15;;;5.70;;
23716;SDS011;22094;52.130;5.598;2022-08-02T00:46:08;7.03;;;4.60;;
23716;SDS011;22094;52.130;5.598;2022-08-02T00:48:34;8.73;;;4.95;;
23716;SDS011;22094;52.130;5.598;2022-08-02T00:51:00;8.63;;;5.30;;
23716;SDS011;22094;52.130;5.598;2022-08-02T00:53:26;8.43;;;4.80;;
23716;SDS011;22094;52.130;5.598;2022-08-02T00:55:51;7.07;;;4.68;;
23716;SDS011;22094;52.130;5.598;2022-08-02T00:58:17;10.02;;;5.00;;
23716;SDS011;22094;52.130;5.598;2022-08-02T01:00:43;9.85;;;5.30;;
23716;SDS011;22094;52.130;5.598;2022-08-02T01:03:08;9.80;;;4.38;;
23716;SDS011;22094;52.130;5.598;2022-08-02T01:05:34;8.82;;;4.70;;
23716;SDS011;22094;52.130;5.598;2022-08-02T01:08:00;10.23;;;4.70;;
23716;SDS011;22094;52.130;5.598;2022-08-02T01:10:26;6.22;;;4.07;;
23716;SDS011;22094;52.130;5.598;2022-08-02T01:12:52;9.63;;;4.40;;
23716;SDS011;22094;52.130;5.598;2022-08-02T01:15:17;8.93;;;4.63;;
23716;SDS011;22094;52.130;5.598;2022-08-02T01:20:48;6.20;;;3.95;;
23716;SDS011;22094;52.130;5.598;2022-08-02T01:29:09;8.23;;;4.53;;
23716;SDS011;22094;52.130;5.598;2022-08-02T01:31:53;8.90;;;4.22;;
23716;SDS011;22094;52.130;5.598;2022-08-02T01:37:18;7.88;;;4.20;;
23716;SDS011;22094;52.130;5.598;2022-08-02T01:39:47;9.13;;;4.30;;
23716;SDS011;22094;52.130;5.598;2022-08-02T01:42:18;7.97;;;4.10;;
23716;SDS011;22094;52.130;5.598;2022-08-02T01:44:46;10.88;;;4.00;;
23716;SDS011;22094;52.130;5.598;2022-08-02T01:47:16;6.28;;;4.22;;
23716;SDS011;22094;52.130;5.598;2022-08-02T01:49:45;6.60;;;4.00;;
23716;SDS011;22094;52.130;5.598;2022-08-02T01:52:14;7.95;;;4.22;;
23716;SDS011;22094;52.130;5.598;2022-08-02T01:54:47;7.57;;;4.00;;
23716;SDS011;22094;52.130;5.598;2022-08-02T01:57:16;8.82;;;4.13;;
23716;SDS011;22094;52.130;5.598;2022-08-02T01:59:44;8.20;;;3.97;;
23716;SDS011;22094;52.130;5.598;2022-08-02T02:02:11;10.40;;;4.10;;
23716;SDS011;22094;52.130;5.598;2022-08-02T02:04:38;9.07;;;4.50;;
23716;SDS011;22094;52.130;5.598;2022-08-02T02:07:04;8.38;;;4.43;;
23716;SDS011;22094;52.130;5.598;2022-08-02T02:09:34;9.80;;;3.97;;
23716;SDS011;22094;52.130;5.598;2022-08-02T02:12:02;7.80;;;4.47;;
23716;SDS011;22094;52.130;5.598;2022-08-02T02:14:29;8.48;;;3.72;;
23716;SDS011;22094;52.130;5.598;2022-08-02T02:16:56;8.35;;;4.10;;
23716;SDS011;22094;52.130;5.598;2022-08-02T02:19:24;6.70;;;4.10;;
23716;SDS011;22094;52.130;5.598;2022-08-02T02:21:52;12.05;;;4.18;;
23716;SDS011;22094;52.130;5.598;2022-08-02T02:24:17;11.45;;;4.45;;
23716;SDS011;22094;52.130;5.598;2022-08-02T02:26:43;5.40;;;3.92;;
23716;SDS011;22094;52.130;5.598;2022-08-02T02:29:10;6.72;;;4.13;;
23716;SDS011;22094;52.130;5.598;2022-08-02T02:31:37;12.38;;;4.05;;
23716;SDS011;22094;52.130;5.598;2022-08-02T02:36:38;9.52;;;4.30;;
23716;SDS011;22094;52.130;5.598;2022-08-02T02:39:06;6.90;;;3.90;;
23716;SDS011;22094;52.130;5.598;2022-08-02T02:41:33;6.07;;;4.10;;
23716;SDS011;22094;52.130;5.598;2022-08-02T02:44:01;6.38;;;4.03;;
23716;SDS011;22094;52.130;5.598;2022-08-02T02:46:29;7.15;;;4.07;;
23716;SDS011;22094;52.130;5.598;2022-08-02T02:48:56;7.22;;;3.97;;
23716;SDS011;22094;52.130;5.598;2022-08-02T02:51:22;9.02;;;4.05;;
23716;SDS011;22094;52.130;5.598;2022-08-02T02:53:49;8.77;;;3.90;;
23716;SDS011;22094;52.130;5.598;2022-08-02T02:56:16;5.45;;;4.22;;
23716;SDS011;22094;52.130;5.598;2022-08-02T02:58:42;7.88;;;4.28;;
23716;SDS011;22094;52.130;5.598;2022-08-02T03:01:09;4.72;;;3.63;;
23716;SDS011;22094;52.130;5.598;2022-08-02T03:03:55;8.73;;;3.72;;
23716;SDS011;22094;52.130;5.598;2022-08-02T03:06:26;12.73;;;5.07;;
23716;SDS011;22094;52.130;5.598;2022-08-02T03:08:53;8.75;;;4.47;;
23716;SDS011;22094;52.130;5.598;2022-08-02T03:11:18;6.63;;;4.35;;
23716;SDS011;22094;52.130;5.598;2022-08-02T03:13:44;6.07;;;4.20;;
23716;SDS011;22094;52.130;5.598;2022-08-02T03:16:10;6.53;;;4.10;;
23716;SDS011;22094;52.130;5.598;2022-08-02T03:18:37;4.70;;;3.63;;
23716;SDS011;22094;52.130;5.598;2022-08-02T03:21:06;9.00;;;4.13;;
23716;SDS011;22094;52.130;5.598;2022-08-02T03:23:35;5.03;;;3.80;;
23716;SDS011;22094;52.130;5.598;2022-08-02T03:26:02;7.88;;;4.03;;
23716;SDS011;22094;52.130;5.598;2022-08-02T03:28:28;7.20;;;3.33;;
23716;SDS011;22094;52.130;5.598;2022-08-02T03:30:54;7.70;;;3.88;;
23716;SDS011;22094;52.130;5.598;2022-08-02T03:33:20;5.55;;;3.88;;
23716;SDS011;22094;52.130;5.598;2022-08-02T03:35:47;6.22;;;4.30;;
23716;SDS011;22094;52.130;5.598;2022-08-02T03:38:15;9.10;;;4.20;;
23716;SDS011;22094;52.130;5.598;2022-08-02T03:40:44;8.40;;;4.00;;
23716;SDS011;22094;52.130;5.598;2022-08-02T03:43:11;10.32;;;3.80;;
23716;SDS011;22094;52.130;5.598;2022-08-02T03:45:38;6.88;;;3.33;;
23716;SDS011;22094;52.130;5.598;2022-08-02T03:48:06;7.53;;;2.83;;
23716;SDS011;22094;52.130;5.598;2022-08-02T03:50:33;6.20;;;3.50;;
23716;SDS011;22094;52.130;5.598;2022-08-02T03:53:01;9.05;;;3.83;;
23716;SDS011;22094;52.130;5.598;2022-08-02T03:55:27;5.38;;;3.60;;
23716;SDS011;22094;52.130;5.598;2022-08-02T03:57:53;7.47;;;4.10;;
23716;SDS011;22094;52.130;5.598;2022-08-02T04:00:19;6.13;;;3.28;;
23716;SDS011;22094;52.130;5.598;2022-08-02T04:02:45;3.55;;;3.22;;
23716;SDS011;22094;52.130;5.598;2022-08-02T04:05:11;8.70;;;3.78;;
23716;SDS011;22094;52.130;5.598;2022-08-02T04:07:37;4.97;;;3.38;;
23716;SDS011;22094;52.130;5.598;2022-08-02T04:10:03;7.32;;;3.83;;
23716;SDS011;22094;52.130;5.598;2022-08-02T04:12:30;6.80;;;3.90;;
23716;SDS011;22094;52.130;5.598;2022-08-02T04:14:55;13.30;;;4.45;;
23716;SDS011;22094;52.130;5.598;2022-08-02T04:17:22;11.75;;;3.67;;
23716;SDS011;22094;52.130;5.598;2022-08-02T04:20:07;6.65;;;3.88;;
23716;SDS011;22094;52.130;5.598;2022-08-02T04:22:40;5.68;;;3.88;;
23716;SDS011;22094;52.130;5.598;2022-08-02T04:25:13;9.48;;;3.38;;
23716;SDS011;22094;52.130;5.598;2022-08-02T04:27:42;6.60;;;3.50;;
23716;SDS011;22094;52.130;5.598;2022-08-02T04:30:08;5.82;;;3.40;;
23716;SDS011;22094;52.130;5.598;2022-08-02T04:32:35;7.32;;;3.60;;
23716;SDS011;22094;52.130;5.598;2022-08-02T04:35:01;5.78;;;3.75;;
23716;SDS011;22094;52.130;5.598;2022-08-02T04:37:27;6.65;;;3.72;;
23716;SDS011;22094;52.130;5.598;2022-08-02T04:39:53;9.57;;;3.80;;
23716;SDS011;22094;52.130;5.598;2022-08-02T04:42:22;10.52;;;4.07;;
23716;SDS011;22094;52.130;5.598;2022-08-02T04:44:49;5.47;;;4.40;;
23716;SDS011;22094;52.130;5.598;2022-08-02T04:47:16;5.68;;;4.00;;
23716;SDS011;22094;52.130;5.598;2022-08-02T04:49:42;9.88;;;4.30;;
23716;SDS011;22094;52.130;5.598;2022-08-02T04:52:07;8.48;;;4.47;;
23716;SDS011;22094;52.130;5.598;2022-08-02T04:54:33;5.88;;;3.83;;
23716;SDS011;22094;52.130;5.598;2022-08-02T04:56:59;5.60;;;3.65;;
23716;SDS011;22094;52.130;5.598;2022-08-02T04:59:25;9.02;;;3.67;;
23716;SDS011;22094;52.130;5.598;2022-08-02T05:01:51;4.88;;;3.10;;
23716;SDS011;22094;52.130;5.598;2022-08-02T05:04:17;4.85;;;3.20;;
23716;SDS011;22094;52.130;5.598;2022-08-02T05:06:43;6.10;;;3.50;;
23716;SDS011;22094;52.130;5.598;2022-08-02T05:09:08;6.18;;;3.60;;
23716;SDS011;22094;52.130;5.598;2022-08-02T05:11:34;6.93;;;3.13;;
23716;SDS011;22094;52.130;5.598;2022-08-02T05:14:00;6.32;;;3.45;;
23716;SDS011;22094;52.130;5.598;2022-08-02T05:16:26;6.60;;;3.70;;
23716;SDS011;22094;52.130;5.598;2022-08-02T05:18:51;6.45;;;3.60;;
23716;SDS011;22094;52.130;5.598;2022-08-02T05:21:17;6.00;;;3.58;;
23716;SDS011;22094;52.130;5.598;2022-08-02T05:23:43;9.82;;;3.20;;
23716;SDS011;22094;52.130;5.598;2022-08-02T05:26:09;8.13;;;3.50;;
23716;SDS011;22094;52.130;5.598;2022-08-02T05:28:35;6.97;;;3.20;;
23716;SDS011;22094;52.130;5.598;2022-08-02T05:31:00;6.43;;;3.03;;
23716;SDS011;22094;52.130;5.598;2022-08-02T05:33:26;6.25;;;2.90;;
23716;SDS011;22094;52.130;5.598;2022-08-02T05:35:52;6.65;;;2.58;;
23716;SDS011;22094;52.130;5.598;2022-08-02T05:38:17;5.22;;;2.50;;
23716;SDS011;22094;52.130;5.598;2022-08-02T05:40:43;4.82;;;2.20;;
23716;SDS011;22094;52.130;5.598;2022-08-02T05:43:12;4.28;;;1.95;;
23716;SDS011;22094;52.130;5.598;2022-08-02T05:45:38;4.47;;;2.22;;
23716;SDS011;22094;52.130;5.598;2022-08-02T05:48:04;8.20;;;2.00;;
23716;SDS011;22094;52.130;5.598;2022-08-02T05:50:31;5.90;;;2.33;;
23716;SDS011;22094;52.130;5.598;2022-08-02T05:53:09;5.13;;;2.17;;
23716;SDS011;22094;52.130;5.598;2022-08-02T05:55:46;8.85;;;2.40;;
23716;SDS011;22094;52.130;5.598;2022-08-02T05:58:35;4.45;;;2.58;;
23716;SDS011;22094;52.130;5.598;2022-08-02T06:01:08;5.80;;;2.25;;
23716;SDS011;22094;52.130;5.598;2022-08-02T06:03:38;6.85;;;2.90;;
23716;SDS011;22094;52.130;5.598;2022-08-02T06:06:12;5.85;;;2.55;;
23716;SDS011;22094;52.130;5.598;2022-08-02T06:08:44;4.82;;;2.50;;
23716;SDS011;22094;52.130;5.598;2022-08-02T06:11:12;5.65;;;2.33;;
23716;SDS011;22094;52.130;5.598;2022-08-02T06:13:41;8.73;;;2.65;;
23716;SDS011;22094;52.130;5.598;2022-08-02T06:16:07;8.73;;;2.63;;
23716;SDS011;22094;52.130;5.598;2022-08-02T06:18:33;8.20;;;2.72;;
23716;SDS011;22094;52.130;5.598;2022-08-02T06:21:00;4.82;;;2.47;;
23716;SDS011;22094;52.130;5.598;2022-08-02T06:23:29;9.88;;;3.03;;
23716;SDS011;22094;52.130;5.598;2022-08-02T06:25:56;9.27;;;2.80;;
23716;SDS011;22094;52.130;5.598;2022-08-02T06:28:23;6.07;;;2.47;;
23716;SDS011;22094;52.130;5.598;2022-08-02T06:30:50;7.45;;;3.10;;
23716;SDS011;22094;52.130;5.598;2022-08-02T06:33:16;7.35;;;2.60;;
23716;SDS011;22094;52.130;5.598;2022-08-02T06:38:26;7.45;;;2.60;;
23716;SDS011;22094;52.130;5.598;2022-08-02T06:43:28;6.43;;;2.88;;
23716;SDS011;22094;52.130;5.598;2022-08-02T06:46:14;7.07;;;2.53;;
23716;SDS011;22094;52.130;5.598;2022-08-02T06:48:40;4.97;;;2.60;;
23716;SDS011;22094;52.130;5.598;2022-08-02T06:51:06;13.23;;;3.08;;
23716;SDS011;22094;52.130;5.598;2022-08-02T06:53:32;7.30;;;3.08;;
23716;SDS011;22094;52.130;5.598;2022-08-02T06:55:58;7.65;;;2.58;;
23716;SDS011;22094;52.130;5.598;2022-08-02T06:58:24;5.68;;;3.05;;
23716;SDS011;22094;52.130;5.598;2022-08-02T07:00:51;9.02;;;2.75;;
23716;SDS011;22094;52.130;5.598;2022-08-02T07:03:17;5.78;;;2.85;;
23716;SDS011;22094;52.130;5.598;2022-08-02T07:05:42;7.35;;;3.28;;
23716;SDS011;22094;52.130;5.598;2022-08-02T07:08:12;7.70;;;3.65;;
23716;SDS011;22094;52.130;5.598;2022-08-02T07:10:41;8.90;;;4.25;;
23716;SDS011;22094;52.130;5.598;2022-08-02T07:13:07;7.55;;;3.70;;
23716;SDS011;22094;52.130;5.598;2022-08-02T07:15:33;7.57;;;4.18;;
23716;SDS011;22094;52.130;5.598;2022-08-02T07:17:59;5.63;;;3.85;;
23716;SDS011;22094;52.130;5.598;2022-08-02T07:20:25;11.45;;;4.72;;
23716;SDS011;22094;52.130;5.598;2022-08-02T07:22:51;8.73;;;5.45;;
23716;SDS011;22094;52.130;5.598;2022-08-02T07:25:17;7.57;;;5.10;;
23716;SDS011;22094;52.130;5.598;2022-08-02T07:27:43;10.35;;;5.20;;
23716;SDS011;22094;52.130;5.598;2022-08-02T07:30:10;9.18;;;5.43;;
23716;SDS011;22094;52.130;5.598;2022-08-02T07:32:35;9.23;;;5.78;;
23716;SDS011;22094;52.130;5.598;2022-08-02T07:35:02;6.57;;;5.00;;
23716;SDS011;22094;52.130;5.598;2022-08-02T07:37:30;9.07;;;5.63;;
23716;SDS011;22094;52.130;5.598;2022-08-02T07:39:57;8.45;;;5.57;;
23716;SDS011;22094;52.130;5.598;2022-08-02T07:42:23;8.05;;;6.30;;
23716;SDS011;22094;52.130;5.598;2022-08-02T07:44:49;8.45;;;5.85;;
23716;SDS011;22094;52.130;5.598;2022-08-02T07:47:15;10.45;;;6.43;;
23716;SDS011;22094;52.130;5.598;2022-08-02T07:49:41;13.25;;;6.30;;
23716;SDS011;22094;52.130;5.598;2022-08-02T07:52:08;10.43;;;6.20;;
23716;SDS011;22094;52.130;5.598;2022-08-02T07:54:33;9.88;;;6.28;;
23716;SDS011;22094;52.130;5.598;2022-08-02T07:56:59;10.15;;;6.20;;
23716;SDS011;22094;52.130;5.598;2022-08-02T07:59:25;10.13;;;6.30;;
23716;SDS011;22094;52.130;5.598;2022-08-02T08:01:51;10.32;;;6.65;;
23716;SDS011;22094;52.130;5.598;2022-08-02T08:04:17;10.13;;;6.82;;
23716;SDS011;22094;52.130;5.598;2022-08-02T08:06:44;11.45;;;7.07;;
23716;SDS011;22094;52.130;5.598;2022-08-02T08:09:13;15.65;;;8.18;;
23716;SDS011;22094;52.130;5.598;2022-08-02T08:11:39;9.63;;;7.13;;
23716;SDS011;22094;52.130;5.598;2022-08-02T08:14:05;13.05;;;8.15;;
23716;SDS011;22094;52.130;5.598;2022-08-02T08:16:31;10.93;;;7.88;;
23716;SDS011;22094;52.130;5.598;2022-08-02T08:18:58;15.18;;;8.18;;
23716;SDS011;22094;52.130;5.598;2022-08-02T08:21:23;11.77;;;8.35;;
23716;SDS011;22094;52.130;5.598;2022-08-02T08:23:49;11.50;;;8.43;;
23716;SDS011;22094;52.130;5.598;2022-08-02T08:26:15;13.32;;;8.25;;
23716;SDS011;22094;52.130;5.598;2022-08-02T08:28:41;13.35;;;8.60;;
23716;SDS011;22094;52.130;5.598;2022-08-02T08:31:07;12.93;;;8.45;;
23716;SDS011;22094;52.130;5.598;2022-08-02T08:33:33;11.38;;;8.02;;
23716;SDS011;22094;52.130;5.598;2022-08-02T08:35:59;16.05;;;8.73;;
23716;SDS011;22094;52.130;5.598;2022-08-02T08:38:25;11.45;;;8.40;;
23716;SDS011;22094;52.130;5.598;2022-08-02T08:40:51;13.50;;;8.95;;
23716;SDS011;22094;52.130;5.598;2022-08-02T08:43:17;13.35;;;8.65;;
23716;SDS011;22094;52.130;5.598;2022-08-02T08:45:43;8.98;;;7.82;;
23716;SDS011;22094;52.130;5.598;2022-08-02T08:48:11;9.70;;;8.30;;
23716;SDS011;22094;52.130;5.598;2022-08-02T08:50:41;10.40;;;7.55;;
23716;SDS011;22094;52.130;5.598;2022-08-02T08:53:08;13.98;;;8.10;;
23716;SDS011;22094;52.130;5.598;2022-08-02T08:55:36;11.98;;;7.28;;
23716;SDS011;22094;52.130;5.598;2022-08-02T08:58:02;11.55;;;6.88;;
23716;SDS011;22094;52.130;5.598;2022-08-02T09:00:29;9.13;;;6.40;;
23716;SDS011;22094;52.130;5.598;2022-08-02T09:02:55;7.10;;;5.97;;
23716;SDS011;22094;52.130;5.598;2022-08-02T09:05:21;10.88;;;5.93;;
23716;SDS011;22094;52.130;5.598;2022-08-02T09:07:48;6.05;;;4.97;;
23716;SDS011;22094;52.130;5.598;2022-08-02T09:13:08;6.38;;;4.63;;
23716;SDS011;22094;52.130;5.598;2022-08-02T09:15:36;5.68;;;4.63;;
23716;SDS011;22094;52.130;5.598;2022-08-02T09:18:03;5.88;;;4.25;;
23716;SDS011;22094;52.130;5.598;2022-08-02T09:20:29;8.32;;;4.75;;
23716;SDS011;22094;52.130;5.598;2022-08-02T09:23:05;7.15;;;4.97;;
23716;SDS011;22094;52.130;5.598;2022-08-02T09:25:33;6.47;;;5.07;;
23716;SDS011;22094;52.130;5.598;2022-08-02T09:27:59;7.47;;;4.88;;
23716;SDS011;22094;52.130;5.598;2022-08-02T09:30:25;6.10;;;4.43;;
23716;SDS011;22094;52.130;5.598;2022-08-02T09:32:51;5.80;;;4.32;;
23716;SDS011;22094;52.130;5.598;2022-08-02T09:35:30;11.00;;;4.25;;
23716;SDS011;22094;52.130;5.598;2022-08-02T09:38:10;5.72;;;4.15;;
23716;SDS011;22094;52.130;5.598;2022-08-02T09:40:37;4.38;;;3.97;;
23716;SDS011;22094;52.130;5.598;2022-08-02T09:43:05;7.18;;;4.72;;
23716;SDS011;22094;52.130;5.598;2022-08-02T09:45:32;5.57;;;4.97;;
23716;SDS011;22094;52.130;5.598;2022-08-02T09:47:59;5.13;;;4.60;;
23716;SDS011;22094;52.130;5.598;2022-08-02T09:50:25;6.38;;;4.93;;
23716;SDS011;22094;52.130;5.598;2022-08-02T09:52:53;6.20;;;5.20;;
23716;SDS011;22094;52.130;5.598;2022-08-02T09:55:20;9.02;;;5.07;;
23716;SDS011;22094;52.130;5.598;2022-08-02T09:57:46;6.28;;;5.35;;
23716;SDS011;22094;52.130;5.598;2022-08-02T10:00:12;6.00;;;5.30;;
23716;SDS011;22094;52.130;5.598;2022-08-02T10:02:38;7.40;;;5.40;;
23716;SDS011;22094;52.130;5.598;2022-08-02T10:05:04;7.60;;;5.72;;
23716;SDS011;22094;52.130;5.598;2022-08-02T10:07:30;9.35;;;6.25;;
23716;SDS011;22094;52.130;5.598;2022-08-02T10:09:56;7.30;;;6.25;;
23716;SDS011;22094;52.130;5.598;2022-08-02T10:12:22;6.85;;;6.20;;
23716;SDS011;22094;52.130;5.598;2022-08-02T10:14:49;10.13;;;6.72;;
23716;SDS011;22094;52.130;5.598;2022-08-02T10:17:15;7.28;;;6.13;;
23716;SDS011;22094;52.130;5.598;2022-08-02T10:19:44;7.65;;;6.32;;
23716;SDS011;22094;52.130;5.598;2022-08-02T10:22:12;7.82;;;6.65;;
23716;SDS011;22094;52.130;5.598;2022-08-02T10:24:40;7.95;;;6.30;;
23716;SDS011;22094;52.130;5.598;2022-08-02T10:27:10;7.78;;;6.60;;
23716;SDS011;22094;52.130;5.598;2022-08-02T10:29:39;7.28;;;5.65;;
23716;SDS011;22094;52.130;5.598;2022-08-02T10:32:09;5.55;;;4.72;;
23716;SDS011;22094;52.130;5.598;2022-08-02T10:34:42;5.38;;;4.13;;
23716;SDS011;22094;52.130;5.598;2022-08-02T10:37:12;7.20;;;5.40;;
23716;SDS011;22094;52.130;5.598;2022-08-02T10:39:40;11.60;;;5.60;;
23716;SDS011;22094;52.130;5.598;2022-08-02T10:42:07;5.63;;;4.50;;
23716;SDS011;22094;52.130;5.598;2022-08-02T10:44:33;5.72;;;4.32;;
23716;SDS011;22094;52.130;5.598;2022-08-02T10:47:20;5.55;;;5.05;;
23716;SDS011;22094;52.130;5.598;2022-08-02T10:49:57;7.85;;;4.60;;
23716;SDS011;22094;52.130;5.598;2022-08-02T10:52:23;6.10;;;4.38;;
23716;SDS011;22094;52.130;5.598;2022-08-02T10:57:32;4.85;;;3.63;;
23716;SDS011;22094;52.130;5.598;2022-08-02T11:05:04;4.35;;;3.95;;
23716;SDS011;22094;52.130;5.598;2022-08-02T11:07:35;4.13;;;3.70;;
23716;SDS011;22094;52.130;5.598;2022-08-02T11:15:23;6.55;;;3.97;;
23716;SDS011;22094;52.130;5.598;2022-08-02T11:17:52;4.13;;;3.15;;
23716;SDS011;22094;52.130;5.598;2022-08-02T11:20:20;6.72;;;3.78;;
23716;SDS011;22094;52.130;5.598;2022-08-02T11:22:46;7.85;;;3.63;;
23716;SDS011;22094;52.130;5.598;2022-08-02T11:27:50;5.35;;;3.90;;
23716;SDS011;22094;52.130;5.598;2022-08-02T11:30:17;5.07;;;3.67;;
23716;SDS011;22094;52.130;5.598;2022-08-02T11:32:47;3.92;;;3.53;;
23716;SDS011;22094;52.130;5.598;2022-08-02T11:35:13;4.75;;;3.92;;
23716;SDS011;22094;52.130;5.598;2022-08-02T11:37:40;4.25;;;3.60;;
23716;SDS011;22094;52.130;5.598;2022-08-02T11:40:10;3.90;;;3.50;;
23716;SDS011;22094;52.130;5.598;2022-08-02T11:42:41;4.75;;;3.50;;
23716;SDS011;22094;52.130;5.598;2022-08-02T11:45:10;4.15;;;3.17;;
23716;SDS011;22094;52.130;5.598;2022-08-02T11:47:46;4.20;;;3.10;;
23716;SDS011;22094;52.130;5.598;2022-08-02T11:50:14;4.30;;;3.17;;
23716;SDS011;22094;52.130;5.598;2022-08-02T11:52:41;5.85;;;3.20;;
23716;SDS011;22094;52.130;5.598;2022-08-02T11:55:10;2.40;;;2.20;;
23716;SDS011;22094;52.130;5.598;2022-08-02T11:57:39;2.92;;;2.72;;
23716;SDS011;22094;52.130;5.598;2022-08-02T12:00:15;2.92;;;2.50;;
23716;SDS011;22094;52.130;5.598;2022-08-02T12:02:45;4.00;;;2.65;;
23716;SDS011;22094;52.130;5.598;2022-08-02T12:05:14;5.13;;;2.30;;
23716;SDS011;22094;52.130;5.598;2022-08-02T12:07:43;4.35;;;2.35;;
23716;SDS011;22094;52.130;5.598;2022-08-02T12:10:10;6.28;;;2.85;;
23716;SDS011;22094;52.130;5.598;2022-08-02T12:12:53;2.97;;;2.78;;
23716;SDS011;22094;52.130;5.598;2022-08-02T12:15:30;3.47;;;2.38;;
23716;SDS011;22094;52.130;5.598;2022-08-02T12:17:57;3.60;;;2.40;;
23716;SDS011;22094;52.130;5.598;2022-08-02T12:20:41;2.63;;;2.20;;
23716;SDS011;22094;52.130;5.598;2022-08-02T12:23:07;2.50;;;2.30;;
23716;SDS011;22094;52.130;5.598;2022-08-02T12:25:33;3.92;;;2.50;;
23716;SDS011;22094;52.130;5.598;2022-08-02T12:28:16;2.55;;;2.35;;
23716;SDS011;22094;52.130;5.598;2022-08-02T12:30:52;2.78;;;2.58;;
23716;SDS011;22094;52.130;5.598;2022-08-02T12:33:23;4.28;;;2.75;;
23716;SDS011;22094;52.130;5.598;2022-08-02T12:35:52;4.75;;;2.40;;
23716;SDS011;22094;52.130;5.598;2022-08-02T12:38:18;2.65;;;2.13;;
23716;SDS011;22094;52.130;5.598;2022-08-02T12:40:44;2.92;;;2.10;;
23716;SDS011;22094;52.130;5.598;2022-08-02T12:43:23;2.65;;;2.20;;
23716;SDS011;22094;52.130;5.598;2022-08-02T12:45:55;2.42;;;2.15;;
23716;SDS011;22094;52.130;5.598;2022-08-02T12:48:35;1.80;;;1.65;;
23716;SDS011;22094;52.130;5.598;2022-08-02T12:51:17;3.03;;;2.05;;
23716;SDS011;22094;52.130;5.598;2022-08-02T12:53:43;3.15;;;1.70;;
23716;SDS011;22094;52.130;5.598;2022-08-02T12:56:09;1.75;;;1.60;;
23716;SDS011;22094;52.130;5.598;2022-08-02T12:58:48;4.88;;;1.60;;
23716;SDS011;22094;52.130;5.598;2022-08-02T13:01:18;3.15;;;1.50;;
23716;SDS011;22094;52.130;5.598;2022-08-02T13:03:48;1.92;;;1.63;;
23716;SDS011;22094;52.130;5.598;2022-08-02T13:06:14;3.40;;;1.70;;
23716;SDS011;22094;52.130;5.598;2022-08-02T13:08:40;1.98;;;1.65;;
23716;SDS011;22094;52.130;5.598;2022-08-02T13:11:06;4.30;;;1.50;;
23716;SDS011;22094;52.130;5.598;2022-08-02T13:13:32;4.78;;;1.70;;
23716;SDS011;22094;52.130;5.598;2022-08-02T13:15:58;3.60;;;1.70;;
23716;SDS011;22094;52.130;5.598;2022-08-02T13:18:24;1.65;;;1.48;;
23716;SDS011;22094;52.130;5.598;2022-08-02T13:20:50;3.65;;;1.50;;
23716;SDS011;22094;52.130;5.598;2022-08-02T13:23:16;5.50;;;1.60;;
23716;SDS011;22094;52.130;5.598;2022-08-02T13:25:42;2.25;;;1.70;;
23716;SDS011;22094;52.130;5.598;2022-08-02T13:28:08;5.80;;;1.83;;
23716;SDS011;22094;52.130;5.598;2022-08-02T13:30:34;2.88;;;1.83;;
23716;SDS011;22094;52.130;5.598;2022-08-02T13:33:00;2.53;;;1.67;;
23716;SDS011;22094;52.130;5.598;2022-08-02T13:35:26;1.63;;;1.50;;
23716;SDS011;22094;52.130;5.598;2022-08-02T13:37:52;2.33;;;1.50;;
23716;SDS011;22094;52.130;5.598;2022-08-02T13:40:18;4.72;;;1.58;;
23716;SDS011;22094;52.130;5.598;2022-08-02T13:42:44;1.88;;;1.70;;
23716;SDS011;22094;52.130;5.598;2022-08-02T13:45:10;3.50;;;1.67;;
23716;SDS011;22094;52.130;5.598;2022-08-02T13:47:37;2.17;;;1.50;;
23716;SDS011;22094;52.130;5.598;2022-08-02T13:50:04;1.33;;;1.23;;
23716;SDS011;22094;52.130;5.598;2022-08-02T13:52:30;2.60;;;1.83;;
23716;SDS011;22094;52.130;5.598;2022-08-02T13:54:56;3.20;;;1.48;;
23716;SDS011;22094;52.130;5.598;2022-08-02T13:57:22;3.42;;;1.48;;
23716;SDS011;22094;52.130;5.598;2022-08-02T13:59:48;2.63;;;1.83;;
23716;SDS011;22094;52.130;5.598;2022-08-02T14:02:14;2.97;;;1.52;;
23716;SDS011;22094;52.130;5.598;2022-08-02T14:04:40;1.42;;;1.30;;
23716;SDS011;22094;52.130;5.598;2022-08-02T14:07:06;2.42;;;1.50;;
23716;SDS011;22094;52.130;5.598;2022-08-02T14:09:32;3.45;;;1.40;;
23716;SDS011;22094;52.130;5.598;2022-08-02T14:12:00;1.98;;;1.08;;
23716;SDS011;22094;52.130;5.598;2022-08-02T14:14:27;1.98;;;1.10;;
23716;SDS011;22094;52.130;5.598;2022-08-02T14:16:53;1.90;;;1.00;;
23716;SDS011;22094;52.130;5.598;2022-08-02T14:19:19;3.47;;;1.10;;
23716;SDS011;22094;52.130;5.598;2022-08-02T14:21:48;1.65;;;1.35;;
23716;SDS011;22094;52.130;5.598;2022-08-02T14:24:15;1.95;;;1.05;;
23716;SDS011;22094;52.130;5.598;2022-08-02T14:26:41;4.35;;;1.08;;
23716;SDS011;22094;52.130;5.598;2022-08-02T14:29:07;1.85;;;1.25;;
23716;SDS011;22094;52.130;5.598;2022-08-02T14:31:33;2.90;;;1.10;;
23716;SDS011;22094;52.130;5.598;2022-08-02T14:33:59;2.28;;;1.10;;
23716;SDS011;22094;52.130;5.598;2022-08-02T14:36:25;2.53;;;0.80;;
23716;SDS011;22094;52.130;5.598;2022-08-02T14:38:51;2.58;;;1.05;;
23716;SDS011;22094;52.130;5.598;2022-08-02T14:41:17;4.00;;;1.10;;
23716;SDS011;22094;52.130;5.598;2022-08-02T14:43:43;2.50;;;1.00;;
23716;SDS011;22094;52.130;5.598;2022-08-02T14:46:27;1.63;;;1.10;;
23716;SDS011;22094;52.130;5.598;2022-08-02T14:48:53;1.92;;;1.20;;
23716;SDS011;22094;52.130;5.598;2022-08-02T14:51:19;4.60;;;1.17;;
23716;SDS011;22094;52.130;5.598;2022-08-02T14:53:45;4.60;;;1.40;;
23716;SDS011;22094;52.130;5.598;2022-08-02T14:56:11;7.50;;;1.70;;
23716;SDS011;22094;52.130;5.598;2022-08-02T14:58:37;4.93;;;1.30;;
23716;SDS011;22094;52.130;5.598;2022-08-02T15:01:03;3.70;;;1.20;;
23716;SDS011;22094;52.130;5.598;2022-08-02T15:03:29;7.38;;;1.52;;
23716;SDS011;22094;52.130;5.598;2022-08-02T15:05:55;2.47;;;1.17;;
23716;SDS011;22094;52.130;5.598;2022-08-02T15:08:21;4.55;;;1.58;;
23716;SDS011;22094;52.130;5.598;2022-08-02T15:10:47;2.78;;;1.48;;
23716;SDS011;22094;52.130;5.598;2022-08-02T15:13:13;2.60;;;1.52;;
23716;SDS011;22094;52.130;5.598;2022-08-02T15:15:39;5.57;;;1.58;;
23716;SDS011;22094;52.130;5.598;2022-08-02T15:18:05;3.90;;;1.65;;
23716;SDS011;22094;52.130;5.598;2022-08-02T15:20:31;3.78;;;1.65;;
23716;SDS011;22094;52.130;5.598;2022-08-02T15:22:57;6.28;;;1.75;;
23716;SDS011;22094;52.130;5.598;2022-08-02T15:25:24;7.95;;;1.60;;
23716;SDS011;22094;52.130;5.598;2022-08-02T15:27:50;2.20;;;1.33;;